Terminal Aerodrome Forecast
Issued by NWS

Home | Current Version | Previous Version | Text Only | Print | Product List | Glossary Off
Versions: 1 2 3 4 5 6 7 8 9 10 11 12 13 14 15 16 17 18 19

626
FTUS43 KTOP 250819 AAB
TAFMHK
TAF AMD
KMHK 250819Z 2508/2606 04006KT P6SM VCTS SCT080CB BKN250
      TEMPO 2508/2510 4SM TSRA BR BKN050CB
     FM251000 05005KT P6SM BKN250
     FM251400 08008KT P6SM SCT250=

USA.gov is the U.S. government's official web portal to all federal, state and local government web resources and services.